Terminal Aerodrome Forecast
Issued by NWS

Home | Current Version | Previous Version | Text Only | Print | Product List | Glossary On
Versions: 1 2 3 4 5 6 7 8 9 10 11 12 13 14 15 16 17 18 19 20 21
611
FTUS43 KLSX 122321
TAFSUS
TAF
KSUS 122321Z 1300/1324 33010KT P6SM SCT250
     FM131000 36006KT P6SM SCT250
     FM132100 05004KT P6SM BKN130=

USA.gov is the U.S. government's official web portal to all federal, state and local government web resources and services.